Time;durP1;ratioP1;P1;durP2;ratioP2;P2;SDS_P1;SDS_P2;PMS_P1;PMS_P2;Temp;Humidity;BMP_temperature;BMP_pressure;BME280_temperature;BME280_humidity;BME280_pressure;Samples;Min_cycle;Max_cycle;Signal;HPM_P1;HPM_P2
2021/03/29 00:00:06;;;;;;;7.67;6.63;;;9.80;72.60;;;;;;4960880;28;20499;-87
2021/03/29 00:02:34;;;;;;;8.77;6.33;;;9.80;72.50;;;;;;4960083;29;20515;-88
2021/03/29 00:05:00;;;;;;;10.23;6.47;;;9.80;72.60;;;;;;4960251;29;20508;-88
2021/03/29 00:07:28;;;;;;;13.60;7.13;;;9.80;72.80;;;;;;4989059;28;20448;-87
2021/03/29 00:09:56;;;;;;;10.03;7.20;;;9.80;72.70;;;;;;4981294;28;20455;-87
2021/03/29 00:12:24;;;;;;;10.03;6.93;;;9.80;72.50;;;;;;4977550;28;20464;-87
2021/03/29 00:14:51;;;;;;;8.30;6.27;;;9.80;72.30;;;;;;4977582;28;20436;-87
2021/03/29 00:17:18;;;;;;;9.50;6.70;;;9.90;72.20;;;;;;4976825;28;20456;-87
2021/03/29 00:19:47;;;;;;;11.83;7.17;;;9.80;72.20;;;;;;4976629;28;20476;-87
2021/03/29 00:22:13;;;;;;;9.03;7.30;;;9.80;72.40;;;;;;4976515;28;20455;-88
2021/03/29 00:24:40;;;;;;;10.03;7.30;;;9.90;72.50;;;;;;4977416;28;20455;-87
2021/03/29 00:27:08;;;;;;;8.13;7.33;;;9.90;72.40;;;;;;4977089;28;20983;-87
2021/03/29 00:29:34;;;;;;;16.00;8.30;;;9.90;72.10;;;;;;4987515;28;20460;-87
2021/03/29 00:32:02;;;;;;;11.30;8.17;;;9.90;71.90;;;;;;4968966;28;20425;-87
2021/03/29 00:34:29;;;;;;;10.90;7.10;;;9.90;71.90;;;;;;4962543;29;20851;-87
2021/03/29 00:36:56;;;;;;;10.53;7.07;;;9.80;72.10;;;;;;4958034;29;20974;-87
2021/03/29 00:39:25;;;;;;;9.63;7.97;;;9.70;72.40;;;;;;4957458;29;20863;-87
2021/03/29 00:41:52;;;;;;;8.20;6.60;;;9.70;72.80;;;;;;4964864;28;20452;-86
2021/03/29 00:44:20;;;;;;;12.73;7.53;;;9.70;73.30;;;;;;4977473;28;20454;-87
2021/03/29 00:46:46;;;;;;;8.13;6.57;;;9.70;73.40;;;;;;4976926;28;20452;-87
2021/03/29 00:49:13;;;;;;;9.70;6.53;;;9.70;73.60;;;;;;4971941;28;21142;-87
2021/03/29 00:51:41;;;;;;;12.30;8.00;;;9.60;73.80;;;;;;4976038;28;20508;-87
2021/03/29 00:54:10;;;;;;;14.40;8.80;;;9.50;74.00;;;;;;4966634;29;20525;-86
2021/03/29 00:56:37;;;;;;;9.97;7.30;;;9.50;74.10;;;;;;4971900;29;20492;-86
2021/03/29 00:59:05;;;;;;;10.53;7.40;;;9.50;74.20;;;;;;4971876;28;20479;-86
2021/03/29 01:01:38;;;;;;;14.77;7.13;;;9.50;74.30;;;;;;4978939;28;20447;-86
2021/03/29 01:04:06;;;;;;;11.03;7.00;;;9.40;74.30;;;;;;4978747;28;20443;-86
2021/03/29 01:06:36;;;;;;;13.57;6.70;;;9.40;74.70;;;;;;4978135;28;20464;-86
2021/03/29 01:09:06;;;;;;;13.93;6.80;;;9.30;74.70;;;;;;4965741;28;20472;-86
2021/03/29 01:11:39;;;;;;;10.67;7.00;;;9.30;75.00;;;;;;4957564;28;20437;-87
2021/03/29 01:14:08;;;;;;;10.00;7.27;;;9.30;75.20;;;;;;4956430;28;20601;-87
2021/03/29 01:16:40;;;;;;;11.13;6.37;;;9.30;75.30;;;;;;4957322;29;20464;-87
2021/03/29 01:19:13;;;;;;;9.87;7.83;;;9.20;75.40;;;;;;4964706;29;20456;-87
2021/03/29 01:21:57;;;;;;;10.73;6.97;;;9.20;75.50;;;;;;4979459;29;20452;-87
2021/03/29 01:24:30;;;;;;;13.63;7.07;;;9.20;75.40;;;;;;4964038;28;20479;-87
2021/03/29 01:26:58;;;;;;;10.30;6.80;;;9.20;75.20;;;;;;4976067;28;20511;-88
2021/03/29 01:29:30;;;;;;;12.73;7.67;;;9.20;75.10;;;;;;4975805;28;20471;-88
2021/03/29 01:31:59;;;;;;;10.77;7.03;;;9.20;75.20;;;;;;4989205;28;20476;-88
2021/03/29 01:34:29;;;;;;;7.83;6.73;;;9.10;75.70;;;;;;4988629;28;20426;-88
2021/03/29 01:36:57;;;;;;;17.23;7.00;;;9.10;76.00;;;;;;4963438;29;20449;-88
2021/03/29 01:39:26;;;;;;;12.17;7.70;;;9.10;76.20;;;;;;4968606;28;20493;-87
2021/03/29 01:41:53;;;;;;;16.57;7.50;;;9.10;75.80;;;;;;4980821;28;20421;-87
2021/03/29 01:44:21;;;;;;;14.17;7.43;;;9.00;76.40;;;;;;4988923;28;20463;-87
2021/03/29 01:46:47;;;;;;;9.57;7.53;;;9.00;76.60;;;;;;4995616;28;20432;-87
2021/03/29 01:49:14;;;;;;;11.17;8.60;;;9.00;76.50;;;;;;4985113;28;20464;-87
2021/03/29 01:51:41;;;;;;;9.70;7.77;;;8.90;76.40;;;;;;4978870;28;20461;-87
2021/03/29 01:54:08;;;;;;;11.40;8.07;;;8.90;76.70;;;;;;4961492;28;20457;-88
2021/03/29 01:56:35;;;;;;;11.63;8.27;;;8.90;76.80;;;;;;4956109;29;20457;-88
2021/03/29 01:59:01;;;;;;;10.13;7.10;;;8.90;77.30;;;;;;4957403;29;21019;-88
2021/03/29 02:01:28;;;;;;;14.27;8.20;;;8.80;77.50;;;;;;4976155;29;20445;-87
2021/03/29 02:03:55;;;;;;;13.40;10.60;;;8.70;77.70;;;;;;4970429;28;20436;-87
2021/03/29 02:06:22;;;;;;;18.87;9.90;;;8.70;78.10;;;;;;4969990;29;20445;-87
2021/03/29 02:08:49;;;;;;;16.00;8.90;;;8.60;78.20;;;;;;4972286;28;20483;-87
2021/03/29 02:11:18;;;;;;;10.70;8.00;;;8.60;78.50;;;;;;4960386;28;20919;-87
2021/03/29 02:13:47;;;;;;;12.60;8.97;;;8.60;78.60;;;;;;4967844;28;20448;-87
2021/03/29 02:16:15;;;;;;;11.90;8.20;;;8.60;78.40;;;;;;4977280;29;20433;-86
2021/03/29 02:18:45;;;;;;;10.60;8.43;;;8.60;78.70;;;;;;4963726;29;20460;-87
2021/03/29 02:21:13;;;;;;;14.47;8.30;;;8.60;78.70;;;;;;4977771;28;20508;-87
2021/03/29 02:23:42;;;;;;;10.67;7.17;;;8.50;79.10;;;;;;4975586;28;20444;-87
2021/03/29 02:26:09;;;;;;;14.60;8.13;;;8.50;79.50;;;;;;4975311;28;21004;-88
2021/03/29 02:28:35;;;;;;;13.20;8.20;;;8.40;79.60;;;;;;4969529;28;21025;-88
2021/03/29 02:31:05;;;;;;;15.10;8.10;;;8.40;79.70;;;;;;4962619;28;20489;-87
2021/03/29 02:33:33;;;;;;;9.60;7.40;;;8.50;79.80;;;;;;4967072;28;20452;-87
2021/03/29 02:36:01;;;;;;;12.60;8.87;;;8.50;80.00;;;;;;4971125;29;20531;-87
2021/03/29 02:38:28;;;;;;;11.60;8.07;;;8.40;80.00;;;;;;4973850;29;20459;-88
2021/03/29 02:40:55;;;;;;;10.30;7.47;;;8.40;80.10;;;;;;4975554;28;20574;-87
2021/03/29 02:43:23;;;;;;;14.23;8.23;;;8.30;80.10;;;;;;4989657;28;20440;-87
2021/03/29 02:45:52;;;;;;;11.50;7.53;;;8.40;80.10;;;;;;4984526;28;20474;-87
2021/03/29 02:48:21;;;;;;;13.80;7.67;;;8.30;80.10;;;;;;4982032;28;20502;-87
2021/03/29 02:50:50;;;;;;;10.27;7.50;;;8.30;80.60;;;;;;4974315;28;20449;-87
2021/03/29 02:53:20;;;;;;;10.40;6.50;;;8.20;80.70;;;;;;4955562;29;20472;-88
2021/03/29 02:55:47;;;;;;;11.97;7.77;;;8.30;80.50;;;;;;4976345;29;20437;-88
2021/03/29 02:58:16;;;;;;;11.43;7.70;;;8.20;80.40;;;;;;4970390;28;20481;-87
2021/03/29 03:00:43;;;;;;;9.90;6.80;;;8.20;80.40;;;;;;4978027;28;20475;-87
2021/03/29 03:03:10;;;;;;;11.07;7.30;;;8.10;80.80;;;;;;4975817;28;20472;-87
2021/03/29 03:05:38;;;;;;;10.27;7.63;;;8.10;81.00;;;;;;4974834;29;20440;-87
2021/03/29 03:08:05;;;;;;;10.60;7.07;;;8.20;81.10;;;;;;4978537;28;20460;-86
2021/03/29 03:10:33;;;;;;;18.07;8.63;;;8.20;80.90;;;;;;4978663;28;20465;-87
2021/03/29 03:13:02;;;;;;;11.33;7.97;;;8.20;80.80;;;;;;4977025;29;20476;-87
2021/03/29 03:15:29;;;;;;;12.10;7.37;;;8.10;80.90;;;;;;4988471;28;20440;-87
2021/03/29 03:17:59;;;;;;;9.17;6.80;;;8.10;80.80;;;;;;4981214;28;20476;-87
2021/03/29 03:20:27;;;;;;;10.00;7.70;;;8.00;81.20;;;;;;4976556;28;20515;-87
2021/03/29 03:22:54;;;;;;;11.33;7.03;;;8.00;81.40;;;;;;4959613;28;20448;-87
2021/03/29 03:25:23;;;;;;;10.27;6.40;;;8.00;81.50;;;;;;4963553;29;20465;-87
2021/03/29 03:27:51;;;;;;;12.03;7.20;;;8.00;81.60;;;;;;4980750;28;20431;-88
2021/03/29 03:30:21;;;;;;;9.13;7.27;;;8.00;81.50;;;;;;4968020;28;20449;-87
2021/03/29 03:32:48;;;;;;;11.00;6.20;;;8.00;81.80;;;;;;4977871;28;20452;-87
2021/03/29 03:35:17;;;;;;;14.27;7.60;;;8.00;82.30;;;;;;4979527;28;20452;-87
2021/03/29 03:37:58;;;;;;;15.00;9.10;;;8.00;82.40;;;;;;4979477;28;20456;-87
2021/03/29 03:40:24;;;;;;;10.10;7.77;;;7.90;83.40;;;;;;4996364;28;20543;-87
2021/03/29 03:42:53;;;;;;;13.20;7.20;;;7.90;82.80;;;;;;4981842;28;20432;-86
2021/03/29 03:45:23;;;;;;;12.10;7.70;;;7.80;82.80;;;;;;4982013;28;20464;-86
2021/03/29 03:47:50;;;;;;;11.57;7.73;;;7.80;83.10;;;;;;4985728;28;20532;-87
2021/03/29 03:50:19;;;;;;;10.57;8.20;;;7.70;83.20;;;;;;5001775;28;20439;-87
2021/03/29 03:52:46;;;;;;;9.17;7.90;;;7.70;83.40;;;;;;5001443;28;20444;-87
2021/03/29 03:55:15;;;;;;;10.03;7.67;;;7.70;83.70;;;;;;5001190;28;20769;-86
2021/03/29 03:57:42;;;;;;;9.60;7.77;;;7.70;83.90;;;;;;4999635;28;20463;-87
2021/03/29 04:00:13;;;;;;;16.70;8.53;;;7.70;83.80;;;;;;4992751;28;20502;-87
2021/03/29 04:02:40;;;;;;;13.50;9.43;;;7.60;84.10;;;;;;4984951;28;20456;-87
2021/03/29 04:05:10;;;;;;;9.87;7.13;;;7.50;84.30;;;;;;4975789;28;20547;-87
2021/03/29 04:07:37;;;;;;;10.30;7.37;;;7.50;84.40;;;;;;4960494;29;20830;-87
2021/03/29 04:10:11;;;;;;;9.07;6.30;;;7.50;84.20;;;;;;4961153;28;20441;-87
2021/03/29 04:12:37;;;;;;;9.43;7.10;;;7.50;84.20;;;;;;4959471;29;21186;-87
2021/03/29 04:15:04;;;;;;;11.60;7.50;;;7.50;84.70;;;;;;4965197;28;20456;-87
2021/03/29 04:17:31;;;;;;;16.97;8.20;;;7.40;85.00;;;;;;4979896;28;20444;-87
2021/03/29 04:19:58;;;;;;;13.53;7.83;;;7.50;84.90;;;;;;4998327;28;20804;-88
2021/03/29 04:22:24;;;;;;;13.10;8.27;;;7.50;84.80;;;;;;4993556;28;20429;-86
2021/03/29 04:24:50;;;;;;;7.70;6.63;;;7.60;84.60;;;;;;4989016;28;20458;-87
2021/03/29 04:27:16;;;;;;;10.30;8.17;;;7.60;84.40;;;;;;4982693;28;20496;-87
2021/03/29 04:29:42;;;;;;;16.20;8.10;;;7.70;84.00;;;;;;4974245;28;20885;-87
2021/03/29 04:32:09;;;;;;;10.07;8.40;;;7.70;83.90;;;;;;4972689;29;20455;-87
2021/03/29 04:34:36;;;;;;;14.27;9.03;;;7.70;84.00;;;;;;4966157;28;20444;-87
2021/03/29 04:37:03;;;;;;;12.60;8.67;;;7.80;83.70;;;;;;4972474;29;20457;-87
2021/03/29 04:39:29;;;;;;;12.27;9.60;;;7.80;84.20;;;;;;4967673;28;20480;-87
2021/03/29 04:41:56;;;;;;;14.73;7.97;;;7.80;83.50;;;;;;4992552;28;20483;-87
2021/03/29 04:44:22;;;;;;;12.30;6.97;;;7.80;83.20;;;;;;4982024;28;20494;-87
2021/03/29 04:46:48;;;;;;;11.87;7.60;;;7.80;83.20;;;;;;4976672;28;20460;-87
2021/03/29 04:49:14;;;;;;;14.37;7.30;;;7.80;83.30;;;;;;4976217;28;20853;-87
2021/03/29 04:51:41;;;;;;;10.40;7.83;;;7.70;83.30;;;;;;4977052;28;21016;-87
2021/03/29 04:54:08;;;;;;;21.20;8.73;;;7.80;83.50;;;;;;4988752;28;20452;-86
2021/03/29 04:56:34;;;;;;;15.17;8.30;;;7.80;83.70;;;;;;4985334;28;20448;-87
2021/03/29 04:59:00;;;;;;;9.13;6.97;;;7.70;84.00;;;;;;4979382;28;20507;-86
2021/03/29 05:01:26;;;;;;;15.53;7.27;;;7.70;83.90;;;;;;4978226;28;20486;-86
2021/03/29 05:03:53;;;;;;;15.40;7.87;;;7.70;84.70;;;;;;4972896;28;20504;-87
2021/03/29 05:06:19;;;;;;;8.80;6.60;;;7.70;84.10;;;;;;4970059;28;20456;-87
2021/03/29 05:08:46;;;;;;;11.40;7.43;;;7.70;84.10;;;;;;4979588;28;20996;-87
2021/03/29 05:11:12;;;;;;;11.80;8.40;;;7.70;84.00;;;;;;4989150;28;20453;-85
2021/03/29 05:13:39;;;;;;;12.57;8.20;;;7.70;84.10;;;;;;4980075;28;20456;-86
2021/03/29 05:16:06;;;;;;;16.40;7.37;;;7.70;84.00;;;;;;4987114;28;20467;-87
2021/03/29 05:18:32;;;;;;;12.83;6.97;;;7.80;83.80;;;;;;4991944;28;20491;-87
2021/03/29 05:20:58;;;;;;;10.03;6.77;;;7.80;83.60;;;;;;4994592;28;21149;-87
2021/03/29 05:23:24;;;;;;;15.83;8.57;;;7.80;83.50;;;;;;4988833;28;20444;-87
2021/03/29 05:25:51;;;;;;;16.13;6.83;;;7.80;83.70;;;;;;4972960;28;20506;-87
2021/03/29 05:28:18;;;;;;;10.07;7.00;;;7.90;83.70;;;;;;4963376;29;20536;-87
2021/03/29 05:30:44;;;;;;;15.97;6.90;;;7.90;83.60;;;;;;4972246;28;20445;-86
2021/03/29 05:33:10;;;;;;;15.50;7.80;;;7.90;83.30;;;;;;4969639;29;21202;-87
2021/03/29 05:35:40;;;;;;;15.27;7.47;;;7.90;83.50;;;;;;4973538;28;20479;-87
2021/03/29 05:38:06;;;;;;;15.90;8.03;;;7.90;83.30;;;;;;4982692;28;20534;-86
2021/03/29 05:40:32;;;;;;;11.33;7.50;;;8.00;83.20;;;;;;4989863;28;20467;-87
2021/03/29 05:43:00;;;;;;;15.10;7.30;;;8.00;82.80;;;;;;4974291;28;20449;-87
2021/03/29 05:45:31;;;;;;;13.20;8.50;;;8.00;82.50;;;;;;4972643;28;20542;-87
2021/03/29 05:47:57;;;;;;;12.30;8.13;;;8.10;82.20;;;;;;4992794;28;20456;-86
2021/03/29 05:50:23;;;;;;;10.70;7.50;;;8.10;82.00;;;;;;4978844;28;20531;-87
2021/03/29 05:52:50;;;;;;;11.73;7.90;;;8.10;82.20;;;;;;4977407;28;20458;-87
2021/03/29 05:55:20;;;;;;;17.20;8.10;;;8.10;82.40;;;;;;4974781;28;20568;-87
2021/03/29 05:58:06;;;;;;;13.17;8.20;;;8.20;82.10;;;;;;4965534;28;20435;-87
2021/03/29 06:00:39;;;;;;;15.23;9.10;;;8.10;82.30;;;;;;4978352;28;20629;-87
2021/03/29 06:03:22;;;;;;;13.30;7.93;;;8.20;82.50;;;;;;4962320;29;20457;-88
2021/03/29 06:05:50;;;;;;;15.83;7.90;;;8.30;82.70;;;;;;4965865;28;20610;-87
2021/03/29 06:08:17;;;;;;;15.17;7.50;;;8.30;81.90;;;;;;4976969;28;20534;-86
2021/03/29 06:10:44;;;;;;;15.10;8.33;;;8.40;81.40;;;;;;4979411;28;20448;-87
2021/03/29 06:13:15;;;;;;;15.50;9.60;;;8.40;81.20;;;;;;4979217;28;20448;-87
2021/03/29 06:15:43;;;;;;;17.93;10.13;;;8.40;80.90;;;;;;4978775;28;20506;-87
2021/03/29 06:18:14;;;;;;;13.37;9.73;;;8.40;80.60;;;;;;4978990;28;20472;-88
2021/03/29 06:21:09;;;;;;;16.70;9.70;;;8.50;81.10;;;;;;4978280;28;20492;-87
2021/03/29 06:23:36;;;;;;;23.57;9.50;;;8.50;81.10;;;;;;4978002;28;20538;-87
2021/03/29 06:26:17;;;;;;;16.60;9.10;;;8.60;80.80;;;;;;4969232;28;20452;-87
2021/03/29 06:28:44;;;;;;;17.73;9.30;;;8.70;80.60;;;;;;4957946;29;20504;-88
2021/03/29 06:31:31;;;;;;;14.40;8.60;;;8.80;80.20;;;;;;4957983;29;20499;-86
2021/03/29 06:33:59;;;;;;;14.93;8.93;;;9.00;79.50;;;;;;4957954;29;20569;-87
2021/03/29 06:36:27;;;;;;;14.20;7.90;;;9.20;79.20;;;;;;4971729;28;20502;-87
2021/03/29 06:38:53;;;;;;;13.30;7.83;;;9.30;78.60;;;;;;4979725;28;20475;-88
2021/03/29 06:41:28;;;;;;;16.63;8.03;;;9.40;77.60;;;;;;4984710;28;20586;-87
2021/03/29 06:43:54;;;;;;;12.60;8.10;;;9.40;76.70;;;;;;4986304;28;20459;-88
2021/03/29 06:46:26;;;;;;;9.47;7.20;;;9.50;76.10;;;;;;4994859;28;20536;-88
2021/03/29 06:48:54;;;;;;;12.80;6.70;;;9.50;75.60;;;;;;4993867;28;20468;-87
2021/03/29 06:51:22;;;;;;;12.13;7.03;;;9.60;75.90;;;;;;4989117;28;20933;-88
2021/03/29 06:53:53;;;;;;;9.20;7.03;;;9.60;74.80;;;;;;4978753;28;20448;-86
2021/03/29 06:56:32;;;;;;;11.03;7.43;;;9.50;74.90;;;;;;4961734;28;20511;-87
2021/03/29 06:59:10;;;;;;;10.27;7.00;;;9.50;74.60;;;;;;4965750;29;20476;-86
2021/03/29 07:01:46;;;;;;;10.30;7.40;;;9.60;74.20;;;;;;4970918;29;20480;-88
2021/03/29 07:04:13;;;;;;;12.20;7.40;;;9.70;74.40;;;;;;4988922;28;20518;-88
2021/03/29 07:06:42;;;;;;;17.47;7.60;;;9.90;74.10;;;;;;4973658;28;20449;-88
2021/03/29 07:09:10;;;;;;;11.50;7.10;;;10.00;71.80;;;;;;4976068;29;20561;-88
2021/03/29 07:11:38;;;;;;;11.60;8.50;;;10.20;71.40;;;;;;4991412;28;20444;-87
2021/03/29 07:14:06;;;;;;;10.30;7.67;;;10.30;70.60;;;;;;4996853;28;20470;-87
2021/03/29 07:16:33;;;;;;;15.70;8.10;;;10.50;70.00;;;;;;4988487;28;20451;-87
2021/03/29 07:19:01;;;;;;;11.47;8.40;;;10.80;69.60;;;;;;4983253;28;20464;-87
2021/03/29 07:21:28;;;;;;;13.67;7.63;;;11.00;69.30;;;;;;4985686;28;20503;-87
2021/03/29 07:24:02;;;;;;;17.17;8.80;;;10.90;68.50;;;;;;4975104;28;20437;-87
2021/03/29 07:26:33;;;;;;;15.40;8.10;;;10.90;68.50;;;;;;4975514;29;20476;-87
2021/03/29 07:29:15;;;;;;;9.23;7.37;;;11.00;68.30;;;;;;4969321;29;20516;-87
2021/03/29 07:31:43;;;;;;;12.60;7.60;;;11.50;68.60;;;;;;4975044;28;20452;-88
2021/03/29 07:34:11;;;;;;;9.57;7.00;;;12.00;67.20;;;;;;4980194;28;20459;-87
2021/03/29 07:36:46;;;;;;;8.50;6.60;;;12.20;64.90;;;;;;4979937;28;20449;-88
2021/03/29 07:39:20;;;;;;;14.70;8.00;;;12.30;63.60;;;;;;4978272;28;20490;-88
2021/03/29 07:41:46;;;;;;;10.77;6.80;;;12.30;63.70;;;;;;4996724;28;20494;-87
2021/03/29 07:44:16;;;;;;;8.63;6.80;;;12.40;63.20;;;;;;4994287;28;20443;-87
2021/03/29 07:46:47;;;;;;;7.73;6.53;;;12.70;62.80;;;;;;4989534;28;20831;-86
2021/03/29 07:49:43;;;;;;;10.03;6.30;;;12.80;61.10;;;;;;4978571;29;20445;-87
2021/03/29 07:52:29;;;;;;;8.73;6.40;;;13.00;60.40;;;;;;4962542;29;20480;-88
2021/03/29 07:54:56;;;;;;;10.93;6.27;;;13.10;59.70;;;;;;4962884;29;20460;-87
2021/03/29 07:58:00;;;;;;;11.13;7.00;;;13.20;59.40;;;;;;4978649;28;20510;-88
2021/03/29 08:00:39;;;;;;;7.80;5.90;;;13.60;59.40;;;;;;4979241;28;20486;-87
2021/03/29 08:03:39;;;;;;;10.80;5.60;;;14.10;58.10;;;;;;4983552;28;20462;-87
2021/03/29 08:06:07;;;;;;;8.03;5.90;;;14.40;57.40;;;;;;4972007;28;20514;-87
2021/03/29 08:08:43;;;;;;;13.20;6.90;;;14.60;56.80;;;;;;4960836;28;20530;-87
2021/03/29 08:11:12;;;;;;;8.63;6.33;;;14.90;56.40;;;;;;4972137;28;20429;-87
2021/03/29 08:13:40;;;;;;;8.30;5.70;;;15.10;56.60;;;;;;4980992;28;20422;-86
2021/03/29 08:16:08;;;;;;;9.03;6.07;;;15.20;55.50;;;;;;4984273;28;20917;-87
2021/03/29 08:19:09;;;;;;;13.10;6.30;;;15.40;55.20;;;;;;4997015;28;20473;-87
2021/03/29 08:21:45;;;;;;;11.43;5.10;;;16.20;54.30;;;;;;4980065;28;20487;-88
2021/03/29 08:24:20;;;;;;;8.73;4.80;;;17.00;52.70;;;;;;4980991;28;20452;-87
2021/03/29 08:26:47;;;;;;;10.60;5.77;;;17.70;51.00;;;;;;4984562;28;20443;-87
2021/03/29 08:29:22;;;;;;;9.87;5.70;;;17.70;50.60;;;;;;4970575;29;20985;-88
2021/03/29 08:32:09;;;;;;;10.40;6.30;;;17.70;50.40;;;;;;4961094;29;20443;-87
2021/03/29 08:34:44;;;;;;;8.70;5.70;;;17.90;50.60;;;;;;4982636;28;20463;-87
2021/03/29 08:37:13;;;;;;;7.43;5.50;;;18.40;50.10;;;;;;4999974;28;20428;-87
2021/03/29 08:39:40;;;;;;;7.13;4.73;;;19.10;48.90;;;;;;4987531;28;20502;-88
2021/03/29 08:42:08;;;;;;;8.57;6.40;;;19.90;48.10;;;;;;4994820;28;20448;-88
2021/03/29 08:44:37;;;;;;;8.90;5.00;;;20.20;46.70;;;;;;4973494;28;20449;-87
2021/03/29 08:47:09;;;;;;;8.30;5.57;;;20.60;45.90;;;;;;4962034;28;20525;-88
2021/03/29 08:49:35;;;;;;;8.47;6.53;;;20.80;45.10;;;;;;4960544;29;20616;-88
2021/03/29 08:52:02;;;;;;;8.87;6.27;;;21.50;45.50;;;;;;4960679;29;20462;-88
2021/03/29 08:54:29;;;;;;;7.40;5.30;;;21.80;44.10;;;;;;4965160;28;20459;-88
2021/03/29 08:57:02;;;;;;;12.43;5.53;;;22.00;43.00;;;;;;4977664;28;20459;-88
2021/03/29 08:59:30;;;;;;;11.33;4.80;;;22.50;43.00;;;;;;4980253;28;20488;-88
2021/03/29 09:01:57;;;;;;;7.40;5.70;;;22.90;42.40;;;;;;4978049;28;20440;-87
2021/03/29 09:04:23;;;;;;;9.30;6.07;;;22.60;42.40;;;;;;4970694;28;20452;-89
2021/03/29 09:06:56;;;;;;;8.60;5.90;;;22.90;42.30;;;;;;4958681;28;21315;-88
2021/03/29 09:09:24;;;;;;;7.27;5.70;;;23.70;41.60;;;;;;4957901;29;20860;-89
2021/03/29 09:11:52;;;;;;;6.43;4.90;;;24.10;40.10;;;;;;4958207;29;20455;-88
2021/03/29 09:14:21;;;;;;;10.23;6.20;;;23.30;40.50;;;;;;4962757;28;20476;-88
2021/03/29 09:16:56;;;;;;;8.37;5.60;;;22.80;40.90;;;;;;4976763;28;20948;-88
2021/03/29 09:19:23;;;;;;;13.40;7.20;;;23.00;41.40;;;;;;4976838;28;20487;-88
2021/03/29 09:21:55;;;;;;;8.90;5.00;;;23.50;41.40;;;;;;4976680;28;20860;-88
2021/03/29 09:24:23;;;;;;;8.70;5.40;;;24.90;40.50;;;;;;4972172;28;20469;-89
2021/03/29 09:27:04;;;;;;;6.20;5.53;;;25.90;38.90;;;;;;4957483;29;20555;-89
2021/03/29 09:29:33;;;;;;;6.53;5.00;;;26.70;37.00;;;;;;4966681;28;20471;-87
2021/03/29 09:32:03;;;;;;;10.63;4.70;;;26.70;36.40;;;;;;4978752;28;20503;-89
2021/03/29 09:34:30;;;;;;;10.30;5.43;;;27.90;35.80;;;;;;4979219;28;20440;-87
2021/03/29 09:36:56;;;;;;;9.87;5.47;;;28.50;34.30;;;;;;4979628;28;20446;-88
2021/03/29 09:39:23;;;;;;;7.43;4.67;;;30.00;33.10;;;;;;4979765;28;20536;-88
2021/03/29 09:41:52;;;;;;;10.80;4.97;;;30.00;31.80;;;;;;4978839;28;20488;-88
2021/03/29 09:44:30;;;;;;;10.53;4.17;;;29.60;31.10;;;;;;4998469;28;20455;-89
2021/03/29 09:46:57;;;;;;;7.30;4.67;;;29.10;32.10;;;;;;4991777;28;20492;-88
2021/03/29 09:49:25;;;;;;;8.63;4.37;;;30.40;31.50;;;;;;4982318;28;20460;-86
2021/03/29 09:52:01;;;;;;;9.63;4.57;;;30.30;30.00;;;;;;4995014;28;20973;-87
2021/03/29 09:54:30;;;;;;;7.73;3.90;;;29.90;30.20;;;;;;4983559;28;20458;-87
2021/03/29 09:56:58;;;;;;;6.80;4.20;;;31.00;29.60;;;;;;4975387;28;20484;-88
2021/03/29 09:59:27;;;;;;;6.00;3.60;;;31.30;28.60;;;;;;4966251;29;20507;-87
2021/03/29 10:01:53;;;;;;;11.03;4.73;;;30.10;29.60;;;;;;4974127;29;20491;-88
2021/03/29 10:04:20;;;;;;;6.20;3.73;;;30.50;29.50;;;;;;4968917;29;20429;-88
2021/03/29 10:06:57;;;;;;;5.00;3.60;;;31.10;28.90;;;;;;4966844;28;20453;-88
2021/03/29 10:09:34;;;;;;;6.70;4.17;;;31.80;28.50;;;;;;4977244;28;20470;-89
2021/03/29 10:12:01;;;;;;;6.93;4.10;;;32.30;27.70;;;;;;4977939;28;20542;-89
2021/03/29 10:14:33;;;;;;;6.20;3.60;;;32.90;27.60;;;;;;4979253;28;20452;-89
2021/03/29 10:16:59;;;;;;;5.50;4.00;;;33.60;26.60;;;;;;4975268;28;20459;-89
2021/03/29 10:19:34;;;;;;;6.93;4.30;;;33.40;26.40;;;;;;4977906;28;20558;-89
2021/03/29 10:22:11;;;;;;;7.50;2.80;;;33.30;26.00;;;;;;4977773;28;20987;-88
2021/03/29 10:24:57;;;;;;;5.80;3.37;;;33.60;26.00;;;;;;4977209;28;20447;-88
2021/03/29 10:27:24;;;;;;;5.20;3.60;;;33.70;25.80;;;;;;5003434;28;20493;-89
2021/03/29 10:29:55;;;;;;;5.00;3.60;;;34.50;25.50;;;;;;5018466;28;20447;-86
2021/03/29 10:32:22;;;;;;;3.60;2.70;;;34.80;25.50;;;;;;4998424;28;20456;-87
2021/03/29 10:34:49;;;;;;;5.67;3.20;;;33.70;25.20;;;;;;4999661;28;20482;-87
2021/03/29 10:37:24;;;;;;;5.23;3.40;;;33.00;25.90;;;;;;4993321;28;20459;-86
2021/03/29 10:39:51;;;;;;;8.60;3.37;;;32.20;26.30;;;;;;4995840;28;20523;-88
2021/03/29 10:42:19;;;;;;;5.03;3.40;;;32.80;27.20;;;;;;4980483;28;20520;-88
2021/03/29 10:44:46;;;;;;;6.37;3.87;;;33.90;26.00;;;;;;4960215;29;20520;-88
2021/03/29 10:47:14;;;;;;;5.60;3.17;;;35.10;25.30;;;;;;4966669;28;20459;-89
2021/03/29 10:49:40;;;;;;;5.13;3.87;;;35.10;25.10;;;;;;4978065;28;20475;-87
2021/03/29 10:52:07;;;;;;;8.00;4.30;;;33.80;24.90;;;;;;4977799;28;20879;-88
2021/03/29 10:54:34;;;;;;;5.80;2.97;;;33.60;25.80;;;;;;4978069;28;21107;-88
2021/03/29 10:57:00;;;;;;;5.40;3.53;;;33.60;25.30;;;;;;4970850;28;20590;-88
2021/03/29 10:59:26;;;;;;;5.50;3.30;;;34.20;25.00;;;;;;4961353;29;20922;-88
2021/03/29 11:01:53;;;;;;;8.33;3.87;;;33.30;25.20;;;;;;4969774;29;20496;-88
2021/03/29 11:04:20;;;;;;;6.20;3.70;;;34.40;25.00;;;;;;4969670;29;20452;-87
2021/03/29 11:06:46;;;;;;;5.33;4.00;;;35.50;24.10;;;;;;4972606;28;20447;-88
2021/03/29 11:09:12;;;;;;;6.43;3.93;;;36.50;23.60;;;;;;4985121;28;20452;-87
2021/03/29 11:11:39;;;;;;;5.67;3.03;;;37.00;23.40;;;;;;4990599;28;20451;-88
2021/03/29 11:14:05;;;;;;;6.67;3.00;;;37.00;23.10;;;;;;4974687;28;20455;-88
2021/03/29 11:16:32;;;;;;;5.67;3.23;;;36.40;22.50;;;;;;4985512;28;20436;-88
2021/03/29 11:18:58;;;;;;;6.20;3.50;;;35.60;23.00;;;;;;4993302;28;20878;-87
2021/03/29 11:21:26;;;;;;;8.33;4.77;;;34.90;23.60;;;;;;4985941;28;20494;-88
2021/03/29 11:23:53;;;;;;;7.40;3.53;;;35.00;23.10;;;;;;4987777;28;20451;-90
2021/03/29 11:26:19;;;;;;;9.40;4.53;;;34.10;23.90;;;;;;5000932;28;20443;-94
2021/03/29 11:28:46;;;;;;;4.67;2.83;;;33.40;23.90;;;;;;4986254;28;20470;-90
2021/03/29 11:31:12;;;;;;;4.80;3.00;;;33.00;24.40;;;;;;4978654;28;20463;-89
2021/03/29 11:33:38;;;;;;;4.27;2.80;;;33.20;23.80;;;;;;4979712;28;20451;-90
2021/03/29 11:36:05;;;;;;;4.10;3.10;;;33.80;23.10;;;;;;4982170;28;20450;-89
2021/03/29 11:38:32;;;;;;;5.83;2.80;;;34.00;23.20;;;;;;4989713;28;21119;-90
2021/03/29 11:40:58;;;;;;;4.70;2.33;;;34.30;22.40;;;;;;4982360;28;20502;-87
2021/03/29 11:43:25;;;;;;;3.80;2.40;;;33.30;21.60;;;;;;4979543;28;20456;-89
2021/03/29 11:45:51;;;;;;;4.03;3.13;;;32.00;23.40;;;;;;4977667;28;20491;-88
2021/03/29 11:48:17;;;;;;;5.63;2.63;;;33.20;23.30;;;;;;4982766;28;20547;-88
2021/03/29 11:50:44;;;;;;;5.30;2.70;;;34.30;22.30;;;;;;4984908;28;20538;-90
2021/03/29 11:53:18;;;;;;;4.47;2.90;;;34.10;22.00;;;;;;4989258;28;20458;-90
2021/03/29 11:55:46;;;;;;;4.57;2.60;;;34.60;21.70;;;;;;5002727;28;20427;-92
2021/03/29 11:58:13;;;;;;;5.83;2.80;;;35.00;21.40;;;;;;4987831;28;20558;-91
2021/03/29 12:00:49;;;;;;;3.33;2.67;;;35.30;21.10;;;;;;5014635;28;20506;-90
2021/03/29 12:03:22;;;;;;;5.07;2.60;;;34.80;21.30;;;;;;4977536;28;20506;-89
2021/03/29 12:05:51;;;;;;;4.20;2.70;;;35.20;21.90;;;;;;4977187;28;20437;-90
2021/03/29 12:08:25;;;;;;;4.40;2.63;;;34.30;21.30;;;;;;4967103;28;20472;-90
2021/03/29 12:13:38;;;;;;;2.50;2.30;;;34.70;21.30;;;;;;4997767;28;20540;-90
2021/03/29 12:16:05;;;;;;;3.77;2.53;;;35.00;21.40;;;;;;4989383;28;20490;-90
2021/03/29 12:18:45;;;;;;;3.40;2.43;;;36.30;21.50;;;;;;4975234;28;20476;-90
2021/03/29 12:21:16;;;;;;;4.57;2.47;;;37.30;20.40;;;;;;4995117;28;20478;-91
2021/03/29 12:23:45;;;;;;;5.60;2.73;;;37.20;20.00;;;;;;4998426;28;20443;-91
2021/03/29 12:26:13;;;;;;;4.50;2.50;;;38.10;19.50;;;;;;4991432;28;20475;-91
2021/03/29 12:28:45;;;;;;;5.93;3.00;;;37.50;19.10;;;;;;4986289;28;20475;-91
2021/03/29 12:31:12;;;;;;;4.17;3.00;;;33.90;19.80;;;;;;4970874;28;20453;-89
2021/03/29 12:33:38;;;;;;;4.50;2.87;;;32.10;21.90;;;;;;4962083;29;20433;-90
2021/03/29 12:36:06;;;;;;;4.83;2.70;;;31.10;22.60;;;;;;4963766;29;20456;-90
2021/03/29 12:38:36;;;;;;;5.77;2.50;;;31.80;22.50;;;;;;4979622;28;20463;-89
2021/03/29 12:41:04;;;;;;;6.87;4.03;;;32.00;22.90;;;;;;4987929;28;20490;-91
2021/03/29 12:43:36;;;;;;;5.93;3.40;;;33.80;22.30;;;;;;4989247;28;20536;-91
2021/03/29 12:46:04;;;;;;;2.83;2.50;;;35.30;21.30;;;;;;4984489;28;20448;-90
2021/03/29 12:48:33;;;;;;;4.70;2.70;;;36.40;20.50;;;;;;4966316;28;20473;-90
2021/03/29 12:51:01;;;;;;;4.80;3.00;;;35.80;20.40;;;;;;4990187;28;20439;-91
2021/03/29 12:53:28;;;;;;;3.60;2.53;;;35.80;20.50;;;;;;4986418;28;20456;-90
2021/03/29 12:55:55;;;;;;;4.13;3.27;;;35.90;19.90;;;;;;4982788;28;21086;-89
2021/03/29 12:58:22;;;;;;;5.30;3.87;;;36.60;19.70;;;;;;4980980;28;20475;-90
2021/03/29 13:00:50;;;;;;;5.00;3.80;;;37.10;19.80;;;;;;4982544;28;20496;-89